AFR261 LFPO-LPPT
Flight info
| Callsign | AFR261 |
|---|---|
| Flight time | N/A |
| Altitude | 37000 |
| Route | LGL UT176 KURIS UN872 ERIGA UZ218 FUJTI DCT BAKUP DCT BATAX DCT INBOM |
| Aircraft | B77W/H-SDE1E2E3FGHIJ2J3J4J5M1RWXY/LB1D1 |
Departure
| Time | 2026-05-05 20:54 |
|---|---|
| Airport | Paris-Orly Airport (LFPO) |
Arrival
| Time | N/A |
|---|---|
| Airport | Lisbon Humberto Delgado Airport (LPPT) |
| Time | Latitude | Longitude | Altitude | Speed | Heading |
|---|---|---|---|---|---|
| 2026-05-05 20:23 | 48.72702 | 2.36738 | 297 ft | 0 kts | 22° |
| 2026-05-05 20:43 | 48.72686 | 2.36729 | 312 ft | 4 kts | 22° |
| 2026-05-05 20:43 | 48.72664 | 2.36718 | 312 ft | 4 kts | 346° |
| 2026-05-05 20:43 | 48.72654 | 2.36733 | 310 ft | 4 kts | 260° |
| 2026-05-05 20:44 | 48.72660 | 2.36763 | 310 ft | 4 kts | 248° |
| 2026-05-05 20:44 | 48.72671 | 2.36801 | 311 ft | 3 kts | 248° |
| 2026-05-05 20:44 | 48.72672 | 2.36806 | 311 ft | 0 kts | 248° |
| 2026-05-05 20:49 | 48.72650 | 2.36764 | 310 ft | 7 kts | 216° |
| 2026-05-05 20:49 | 48.72613 | 2.36711 | 309 ft | 7 kts | 233° |
| 2026-05-05 20:50 | 48.72578 | 2.36640 | 311 ft | 10 kts | 222° |
| 2026-05-05 20:50 | 48.72506 | 2.36599 | 310 ft | 11 kts | 211° |
| 2026-05-05 20:50 | 48.72470 | 2.36486 | 310 ft | 15 kts | 253° |
| 2026-05-05 20:50 | 48.72438 | 2.36315 | 310 ft | 17 kts | 255° |
| 2026-05-05 20:51 | 48.72402 | 2.36114 | 312 ft | 18 kts | 254° |
| 2026-05-05 20:51 | 48.72371 | 2.35944 | 311 ft | 19 kts | 253° |
| 2026-05-05 20:51 | 48.72335 | 2.35754 | 308 ft | 20 kts | 255° |
| 2026-05-05 20:51 | 48.72264 | 2.35610 | 310 ft | 17 kts | 196° |
| 2026-05-05 20:52 | 48.72137 | 2.35638 | 311 ft | 16 kts | 163° |
| 2026-05-05 20:52 | 48.72037 | 2.35739 | 310 ft | 19 kts | 129° |
| 2026-05-05 20:52 | 48.71971 | 2.35865 | 313 ft | 13 kts | 147° |
| 2026-05-05 20:52 | 48.71954 | 2.35945 | 311 ft | 2 kts | 72° |
| 2026-05-05 20:53 | 48.71977 | 2.36064 | 310 ft | 43 kts | 73° |
| 2026-05-05 20:53 | 48.72140 | 2.36910 | 309 ft | 122 kts | 73° |
| 2026-05-05 20:54 | 48.72432 | 2.38471 | 317 ft | 182 kts | 75° |
| 2026-05-05 20:54 | 48.72764 | 2.40425 | 732 ft | 200 kts | 72° |
| 2026-05-05 20:54 | 48.73136 | 2.42490 | 1658 ft | 193 kts | 71° |
| 2026-05-05 20:54 | 48.73478 | 2.44325 | 2872 ft | 175 kts | 70° |
| 2026-05-05 20:55 | 48.73826 | 2.46172 | 3276 ft | 198 kts | 71° |
| 2026-05-05 20:55 | 48.74122 | 2.48345 | 3515 ft | 225 kts | 82° |
| 2026-05-05 20:55 | 48.74217 | 2.50883 | 3827 ft | 254 kts | 85° |
| 2026-05-05 20:55 | 48.74288 | 2.53602 | 4625 ft | 262 kts | 85° |
| 2026-05-05 20:56 | 48.74257 | 2.56392 | 5408 ft | 267 kts | 100° |
| 2026-05-05 20:56 | 48.73448 | 2.58955 | 6201 ft | 277 kts | 130° |
| 2026-05-05 20:56 | 48.71895 | 2.60669 | 7126 ft | 280 kts | 158° |
| 2026-05-05 20:56 | 48.69988 | 2.61142 | 8126 ft | 281 kts | 185° |
| 2026-05-05 20:57 | 48.68146 | 2.60282 | 9023 ft | 284 kts | 212° |
| 2026-05-05 20:57 | 48.66751 | 2.58206 | 9895 ft | 285 kts | 240° |
| 2026-05-05 20:57 | 48.66149 | 2.55336 | 10514 ft | 297 kts | 265° |
| 2026-05-05 20:57 | 48.66158 | 2.52068 | 10767 ft | 323 kts | 272° |
| 2026-05-05 20:58 | 48.66288 | 2.48522 | 11004 ft | 351 kts | 273° |
| 2026-05-05 20:58 | 48.66409 | 2.44730 | 11506 ft | 369 kts | 272° |
| 2026-05-05 20:58 | 48.66452 | 2.40816 | 12330 ft | 374 kts | 265° |
| 2026-05-05 20:58 | 48.65825 | 2.37035 | 12882 ft | 374 kts | 248° |
| 2026-05-05 20:59 | 48.64757 | 2.33434 | 12889 ft | 371 kts | 246° |
| 2026-05-05 20:59 | 48.63717 | 2.29843 | 13129 ft | 378 kts | 247° |
| 2026-05-05 20:59 | 48.62909 | 2.26049 | 13873 ft | 385 kts | 262° |
| 2026-05-05 20:59 | 48.63019 | 2.21997 | 14826 ft | 388 kts | 278° |
| 2026-05-05 21:00 | 48.63466 | 2.17915 | 15700 ft | 395 kts | 279° |
| 2026-05-05 21:00 | 48.63895 | 2.13854 | 16704 ft | 400 kts | 277° |
| 2026-05-05 21:00 | 48.64061 | 2.09631 | 17584 ft | 406 kts | 269° |
| 2026-05-05 21:00 | 48.63857 | 2.05346 | 18424 ft | 412 kts | 262° |
| 2026-05-05 21:01 | 48.63374 | 2.01041 | 19186 ft | 417 kts | 260° |
| 2026-05-05 21:01 | 48.62855 | 1.96687 | 19924 ft | 423 kts | 260° |
| 2026-05-05 21:01 | 48.62325 | 1.92273 | 20626 ft | 430 kts | 260° |
| 2026-05-05 21:01 | 48.61788 | 1.87783 | 21321 ft | 437 kts | 260° |
| 2026-05-05 21:02 | 48.61247 | 1.83231 | 22021 ft | 443 kts | 260° |
| 2026-05-05 21:02 | 48.60701 | 1.78602 | 22697 ft | 450 kts | 260° |
| 2026-05-05 21:02 | 48.60147 | 1.73901 | 23345 ft | 457 kts | 260° |
| 2026-05-05 21:02 | 48.59589 | 1.69158 | 24004 ft | 460 kts | 260° |
| 2026-05-05 21:03 | 48.59025 | 1.64368 | 24524 ft | 466 kts | 260° |
| 2026-05-05 21:03 | 48.58460 | 1.59597 | 25124 ft | 469 kts | 260° |
| 2026-05-05 21:03 | 48.57875 | 1.54665 | 25720 ft | 473 kts | 260° |
| 2026-05-05 21:03 | 48.57295 | 1.49805 | 26303 ft | 478 kts | 260° |
| 2026-05-05 21:04 | 48.56701 | 1.44839 | 26863 ft | 483 kts | 260° |
| 2026-05-05 21:04 | 48.56100 | 1.39826 | 27391 ft | 487 kts | 260° |
| 2026-05-05 21:04 | 48.55489 | 1.34765 | 27889 ft | 492 kts | 260° |
| 2026-05-05 21:04 | 48.54873 | 1.29673 | 28362 ft | 496 kts | 260° |
| 2026-05-05 21:05 | 48.54248 | 1.24534 | 28813 ft | 500 kts | 260° |
| 2026-05-05 21:05 | 48.53615 | 1.19345 | 29242 ft | 504 kts | 260° |
| 2026-05-05 21:05 | 48.52983 | 1.14190 | 29631 ft | 507 kts | 260° |
| 2026-05-05 21:05 | 48.52340 | 1.08960 | 30092 ft | 508 kts | 260° |
| 2026-05-05 21:06 | 48.51694 | 1.03727 | 30662 ft | 505 kts | 259° |
| 2026-05-05 21:06 | 48.51051 | 0.98542 | 31318 ft | 500 kts | 259° |
| 2026-05-05 21:06 | 48.50410 | 0.93398 | 31966 ft | 496 kts | 259° |
| 2026-05-05 21:06 | 48.49775 | 0.88310 | 32558 ft | 493 kts | 259° |
| 2026-05-05 21:07 | 48.49138 | 0.83230 | 33101 ft | 491 kts | 258° |
| 2026-05-05 21:07 | 48.48709 | 0.79817 | 33452 ft | 490 kts | 258° |
| 2026-05-05 21:07 | 48.48082 | 0.74847 | 33952 ft | 488 kts | 258° |
| 2026-05-05 21:07 | 48.47232 | 0.68137 | 34521 ft | 486 kts | 258° |
| 2026-05-05 21:08 | 48.46810 | 0.64820 | 34776 ft | 486 kts | 258° |
| 2026-05-05 21:08 | 48.46173 | 0.59823 | 35129 ft | 486 kts | 258° |
| 2026-05-05 21:08 | 48.45533 | 0.54830 | 35509 ft | 485 kts | 258° |
| 2026-05-05 21:08 | 48.44893 | 0.49848 | 35878 ft | 484 kts | 257° |
| 2026-05-05 21:09 | 48.44251 | 0.44872 | 36260 ft | 483 kts | 258° |
| 2026-05-05 21:09 | 48.43609 | 0.39905 | 36657 ft | 481 kts | 257° |
| 2026-05-05 21:09 | 48.42968 | 0.34965 | 36936 ft | 481 kts | 257° |
| 2026-05-05 21:09 | 48.42320 | 0.29995 | 36883 ft | 483 kts | 258° |
| 2026-05-05 21:10 | 48.41029 | 0.20145 | 36898 ft | 480 kts | 257° |
| 2026-05-05 21:10 | 48.39730 | 0.10297 | 36903 ft | 479 kts | 257° |
| 2026-05-05 21:11 | 48.37448 | 0.01043 | 36903 ft | 473 kts | 233° |
| 2026-05-05 21:11 | 48.35326 | -0.02705 | 36908 ft | 471 kts | 222° |
| 2026-05-05 21:11 | 48.32773 | -0.05779 | 36923 ft | 469 kts | 216° |
| 2026-05-05 21:12 | 48.27519 | -0.11645 | 36914 ft | 470 kts | 216° |
| 2026-05-05 21:12 | 48.23193 | -0.16515 | 36907 ft | 467 kts | 216° |